createdAt,value
2023-04-11T00:00:46.842Z,100891.15
2023-04-11T00:03:53.744Z,100892.97
2023-04-11T00:06:59.459Z,100883.22
2023-04-11T00:10:05.892Z,100895.41
2023-04-11T00:13:13.725Z,100902.53
2023-04-11T00:16:20.863Z,100888.55
2023-04-11T00:19:28.692Z,100890.22
2023-04-11T00:22:35.035Z,100886.77
2023-04-11T00:25:43.552Z,100876.66
2023-04-11T00:28:49.996Z,100878.55
2023-04-11T00:31:57.103Z,100879.67
2023-04-11T00:35:02.988Z,100878.95
2023-04-11T00:38:08.747Z,100877.20
2023-04-11T00:41:15.150Z,100879.84
2023-04-11T00:44:21.066Z,100886.61
2023-04-11T00:47:27.755Z,100881.30
2023-04-11T00:50:34.427Z,100882.28
2023-04-11T00:53:42.288Z,100883.30
2023-04-11T00:56:48.239Z,100882.23
2023-04-11T00:59:55.241Z,100878.15
2023-04-11T01:03:03.645Z,100870.61
2023-04-11T01:06:10.628Z,100874.36
2023-04-11T01:09:16.866Z,100866.82
2023-04-11T01:12:23.763Z,100865.11
2023-04-11T01:15:29.603Z,100858.45
2023-04-11T01:18:35.728Z,100852.47
2023-04-11T01:21:43.491Z,100853.00
2023-04-11T01:24:49.249Z,100841.23
2023-04-11T01:27:55.825Z,100843.95
2023-04-11T01:31:01.424Z,100840.22
2023-04-11T01:34:07.098Z,100848.39
2023-04-11T01:37:14.166Z,100838.85
2023-04-11T01:40:22.867Z,100840.94
2023-04-11T01:43:28.958Z,100838.70
2023-04-11T01:46:35.113Z,100840.94
2023-04-11T01:49:41.271Z,100837.58
2023-04-11T01:52:47.905Z,100837.91
2023-04-11T01:55:54.250Z,100834.70
2023-04-11T01:59:01.171Z,100832.12
2023-04-11T02:02:07.479Z,100837.91
2023-04-11T02:05:14.629Z,100832.47
2023-04-11T02:08:20.895Z,100827.52
2023-04-11T02:11:27.917Z,100830.37
2023-04-11T02:14:36.287Z,100832.27
2023-04-11T02:17:43.636Z,100826.30
2023-04-11T02:20:52.492Z,100831.74
2023-04-11T02:24:00.858Z,100838.94
2023-04-11T02:27:07.797Z,100839.42
2023-04-11T02:30:14.905Z,100840.94
2023-04-11T02:33:21.106Z,100840.59
2023-04-11T02:36:27.790Z,100837.00
2023-04-11T02:39:34.693Z,100841.58
2023-04-11T02:42:40.648Z,100853.20
2023-04-11T02:45:49.821Z,100854.22
2023-04-11T02:48:57.136Z,100849.45
2023-04-11T02:52:04.602Z,100852.70
2023-04-11T02:55:10.589Z,100842.64
2023-04-11T02:58:15.686Z,100852.33
2023-04-11T03:01:23.678Z,100842.16
2023-04-11T03:04:30.488Z,100838.55
2023-04-11T03:07:40.619Z,100840.79
2023-04-11T03:10:48.011Z,100835.83
2023-04-11T03:13:57.328Z,100842.64
2023-04-11T03:17:03.404Z,100839.28
2023-04-11T03:20:11.989Z,100837.05
2023-04-11T03:23:20.642Z,100837.77
2023-04-11T03:26:27.557Z,100833.69
2023-04-11T03:29:36.230Z,100831.88
2023-04-11T03:32:44.639Z,100831.95
2023-04-11T03:35:51.573Z,100831.02
2023-04-11T03:39:00.991Z,100836.52
2023-04-11T03:42:08.913Z,100829.25
2023-04-11T03:45:14.611Z,100828.66
2023-04-11T03:48:21.234Z,100829.94
2023-04-11T03:51:29.235Z,100827.10
2023-04-11T03:54:36.658Z,100817.83
2023-04-11T03:57:42.759Z,100823.70
2023-04-11T04:00:49.428Z,100814.11
2023-04-11T04:03:57.671Z,100814.36
2023-04-11T04:07:06.441Z,100818.84
2023-04-11T04:10:15.559Z,100822.88
2023-04-11T04:13:23.948Z,100823.85
2023-04-11T04:16:44.807Z,100820.35
2023-04-11T04:19:52.192Z,100821.66
2023-04-11T04:23:00.296Z,100822.12
2023-04-11T04:26:08.728Z,100816.37
2023-04-11T04:29:17.401Z,100817.83
2023-04-11T04:32:30.655Z,100824.92
2023-04-11T04:35:41.005Z,100812.77
2023-04-11T04:38:48.917Z,100816.27
2023-04-11T04:41:56.401Z,100813.32
2023-04-11T04:45:05.950Z,100814.06
2023-04-11T04:48:12.696Z,100817.25
2023-04-11T04:51:21.852Z,100807.59
2023-04-11T04:54:28.036Z,100805.47
2023-04-11T04:57:33.931Z,100793.09
2023-04-11T05:00:40.393Z,100799.35
2023-04-11T05:03:48.733Z,100801.27
2023-04-11T05:06:57.514Z,100805.63
2023-04-11T05:10:04.145Z,100803.28
2023-04-11T05:13:10.654Z,100793.39
2023-04-11T05:16:17.843Z,100794.98
2023-04-11T05:19:24.667Z,100797.74
2023-04-11T05:22:29.823Z,100791.94
2023-04-11T05:25:37.477Z,100795.22
2023-04-11T05:28:46.630Z,100785.99
2023-04-11T05:31:53.105Z,100787.55
2023-04-11T05:35:09.678Z,100789.75
2023-04-11T05:38:17.595Z,100785.16
2023-04-11T05:41:24.878Z,100785.96
2023-04-11T05:44:33.967Z,100780.27
2023-04-11T05:47:41.767Z,100784.01
2023-04-11T05:50:48.525Z,100774.99
2023-04-11T05:53:54.784Z,100779.77
2023-04-11T05:57:01.277Z,100777.09
2023-04-11T06:00:08.944Z,100769.11
2023-04-11T06:03:17.644Z,100776.56
2023-04-11T06:06:24.074Z,100768.38
2023-04-11T06:09:33.483Z,100772.84
2023-04-11T06:12:39.516Z,100763.07
2023-04-11T06:15:47.168Z,100760.49
2023-04-11T06:18:52.751Z,100755.20
2023-04-11T06:21:57.720Z,100754.73
2023-04-11T06:25:02.820Z,100748.83
2023-04-11T06:28:09.796Z,100759.94
2023-04-11T06:31:15.875Z,100754.50
2023-04-11T06:34:22.704Z,100745.15
2023-04-11T06:37:29.778Z,100745.44
2023-04-11T06:40:38.303Z,100739.66
2023-04-11T06:43:47.354Z,100737.17
2023-04-11T06:46:55.238Z,100740.83
2023-04-11T06:50:04.596Z,100735.98
2023-04-11T06:53:11.590Z,100733.36
2023-04-11T06:56:18.945Z,100728.05
2023-04-11T06:59:27.649Z,100729.23
2023-04-11T07:02:35.086Z,100720.45
2023-04-11T07:05:42.277Z,100714.09
2023-04-11T07:08:50.778Z,100714.78
2023-04-11T07:11:59.379Z,100711.99
2023-04-11T07:15:06.384Z,100709.47
2023-04-11T07:18:12.677Z,100708.80
2023-04-11T07:21:18.514Z,100707.81
2023-04-11T07:24:25.553Z,100696.66
2023-04-11T07:27:31.080Z,100696.52
2023-04-11T07:30:37.215Z,100688.46
2023-04-11T07:33:45.275Z,100690.27
2023-04-11T07:36:53.385Z,100690.11
2023-04-11T07:39:59.444Z,100676.44
2023-04-11T07:43:04.706Z,100680.33
2023-04-11T07:46:10.644Z,100677.01
2023-04-11T07:49:17.839Z,100660.29
2023-04-11T07:52:23.349Z,100654.77
2023-04-11T07:55:30.768Z,100639.17
2023-04-11T07:58:38.359Z,100654.67
2023-04-11T08:01:44.743Z,100645.66
2023-04-11T08:04:51.598Z,100648.27
2023-04-11T08:07:58.104Z,100636.19
2023-04-11T08:11:04.083Z,100643.88
2023-04-11T08:14:10.594Z,100632.03
2023-04-11T08:17:27.629Z,100622.84
2023-04-11T08:20:26.810Z,100630.84
2023-04-11T08:23:32.698Z,100607.06
2023-04-11T08:27:17.556Z,100618.12
2023-04-11T08:30:27.739Z,100614.20
2023-04-11T08:33:39.352Z,100616.76
2023-04-11T08:36:45.062Z,100612.59
2023-04-11T08:39:52.144Z,100601.53
2023-04-11T08:43:01.611Z,100604.30
2023-04-11T08:46:08.085Z,100586.88
2023-04-11T08:49:13.722Z,100595.31
2023-04-11T08:52:19.558Z,100584.80
2023-04-11T08:55:25.670Z,100584.83
2023-04-11T08:58:31.808Z,100592.89
2023-04-11T09:01:48.036Z,100580.14
2023-04-11T09:04:55.665Z,100561.08
2023-04-11T09:08:06.242Z,100557.24
2023-04-11T09:11:15.953Z,100566.48
2023-04-11T09:14:27.246Z,100565.87
2023-04-11T09:17:33.391Z,100559.69
2023-04-11T09:20:40.548Z,100540.69
2023-04-11T09:23:46.968Z,100547.77
2023-04-11T09:26:54.338Z,100534.60
2023-04-11T09:30:04.798Z,100525.89
2023-04-11T09:33:10.933Z,100525.41
2023-04-11T09:36:25.174Z,100523.71
2023-04-11T09:39:35.206Z,100514.84
2023-04-11T09:42:42.239Z,100516.48
2023-04-11T09:46:00.493Z,100513.91
2023-04-11T09:48:59.614Z,100509.67
2023-04-11T09:52:10.373Z,100506.14
2023-04-11T09:55:21.044Z,100499.70
2023-04-11T09:58:27.640Z,100488.75
2023-04-11T10:01:34.874Z,100482.13
2023-04-11T10:04:41.024Z,100488.79
2023-04-11T10:07:45.773Z,100473.46
2023-04-11T10:10:50.435Z,100469.60
2023-04-11T10:14:02.441Z,100460.65
2023-04-11T10:17:32.622Z,100458.09
2023-04-11T10:21:01.548Z,100451.34
2023-04-11T10:24:32.555Z,100437.46
2023-04-11T10:28:12.300Z,100444.36
2023-04-11T10:31:25.660Z,100440.37
2023-04-11T10:34:31.518Z,100441.66
2023-04-11T10:37:48.838Z,100437.18
2023-04-11T10:41:17.035Z,100420.04
2023-04-11T10:44:31.786Z,100410.41
2023-04-11T10:47:37.696Z,100408.23
2023-04-11T10:50:49.048Z,100403.47
2023-04-11T10:53:55.249Z,100423.78
2023-04-11T10:57:10.612Z,100407.72
2023-04-11T11:00:19.321Z,100390.22
2023-04-11T11:03:42.905Z,100400.83
2023-04-11T11:06:56.701Z,100397.59
2023-04-11T11:10:04.024Z,100391.34
2023-04-11T11:13:10.866Z,100378.70
2023-04-11T11:16:16.949Z,100369.45
2023-04-11T11:19:23.867Z,100368.69
2023-04-11T11:22:33.799Z,100364.30
2023-04-11T11:25:40.916Z,100360.84
2023-04-11T11:28:49.388Z,100359.37
2023-04-11T11:31:59.867Z,100352.57
2023-04-11T11:35:05.669Z,100350.66
2023-04-11T11:38:11.908Z,100343.89
2023-04-11T11:41:18.148Z,100351.19
2023-04-11T11:44:25.392Z,100357.22
2023-04-11T11:47:33.727Z,100344.80
2023-04-11T11:50:43.364Z,100349.49
2023-04-11T11:53:51.201Z,100346.64
2023-04-11T11:56:57.467Z,100336.46
2023-04-11T12:00:15.932Z,100332.22
2023-04-11T12:03:24.756Z,100330.30
2023-04-11T12:06:31.444Z,100323.73
2023-04-11T12:09:47.130Z,100308.50
2023-04-11T12:12:56.574Z,100321.36
2023-04-11T12:16:08.907Z,100305.52
2023-04-11T12:19:16.453Z,100302.58
2023-04-11T12:22:26.945Z,100296.64
2023-04-11T12:25:36.281Z,100298.89
2023-04-11T12:28:41.381Z,100299.95
2023-04-11T12:31:49.690Z,100292.79
2023-04-11T12:34:55.151Z,100294.61
2023-04-11T12:38:01.394Z,100271.44
2023-04-11T12:44:15.251Z,100267.61
2023-04-11T12:44:22.841Z,100280.87
2023-04-11T12:47:22.584Z,100266.58
2023-04-11T12:50:31.486Z,100264.04
2023-04-11T12:53:38.044Z,100254.74
2023-04-11T12:56:43.881Z,100252.83
2023-04-11T12:59:50.545Z,100245.80
2023-04-11T13:02:57.602Z,100247.05
2023-04-11T13:06:05.845Z,100242.72
2023-04-11T13:09:13.979Z,100241.70
2023-04-11T13:12:21.867Z,100242.91
2023-04-11T13:15:28.019Z,100243.59
2023-04-11T13:18:33.520Z,100254.73
2023-04-11T13:21:40.070Z,100251.49
2023-04-11T13:24:46.167Z,100245.55
2023-04-11T13:27:52.736Z,100241.09
2023-04-11T13:30:59.755Z,100238.91
2023-04-11T13:34:06.763Z,100224.14
2023-04-11T13:37:13.361Z,100216.83
2023-04-11T13:40:23.349Z,100214.63
2023-04-11T13:43:29.436Z,100202.55
2023-04-11T13:46:34.951Z,100192.06
2023-04-11T13:49:41.876Z,100201.16
2023-04-11T13:52:47.658Z,100177.70
2023-04-11T13:55:56.442Z,100171.78
2023-04-11T13:59:04.005Z,100180.95
2023-04-11T14:02:11.711Z,100179.17
2023-04-11T14:05:19.229Z,100179.22
2023-04-11T14:08:25.680Z,100182.22
2023-04-11T14:11:24.014Z,100178.70
2023-04-11T14:14:30.626Z,100177.28
2023-04-11T14:17:36.637Z,100179.30
2023-04-11T14:20:44.864Z,100176.59
2023-04-11T14:23:50.453Z,100176.03
2023-04-11T14:26:57.791Z,100176.31
2023-04-11T14:30:04.315Z,100180.45
2023-04-11T14:33:11.259Z,100167.83
2023-04-11T14:36:18.315Z,100175.48
2023-04-11T14:39:25.551Z,100174.54
2023-04-11T14:42:32.793Z,100170.52
2023-04-11T14:45:39.677Z,100175.28
2023-04-11T14:48:46.845Z,100176.41
2023-04-11T14:51:53.024Z,100166.21
2023-04-11T14:54:59.952Z,100171.89
2023-04-11T14:58:10.316Z,100169.58
2023-04-11T15:01:15.914Z,100175.33
2023-04-11T15:04:24.357Z,100181.84
2023-04-11T15:07:30.924Z,100181.65
2023-04-11T15:10:39.165Z,100183.78
2023-04-11T15:13:45.882Z,100179.78
2023-04-11T15:16:52.019Z,100179.06
2023-04-11T15:19:57.242Z,100173.34
2023-04-11T15:23:03.792Z,100161.23
2023-04-11T15:26:11.175Z,100166.39
2023-04-11T15:29:17.578Z,100165.56
2023-04-11T15:32:22.217Z,100163.16
2023-04-11T15:35:27.981Z,100173.39
2023-04-11T15:38:34.016Z,100179.80
2023-04-11T15:41:40.376Z,100182.02
2023-04-11T15:44:45.631Z,100190.11
2023-04-11T15:47:51.570Z,100179.94
2023-04-11T15:50:57.670Z,100175.81
2023-04-11T15:54:04.699Z,100173.28
2023-04-11T15:57:10.489Z,100173.95
2023-04-11T16:00:19.262Z,100167.80
2023-04-11T16:03:27.119Z,100163.89
2023-04-11T16:06:34.596Z,100166.88
2023-04-11T16:09:42.454Z,100163.91
2023-04-11T16:12:52.367Z,100163.08
2023-04-11T16:16:00.013Z,100164.25
2023-04-11T16:19:05.965Z,100158.21
2023-04-11T16:22:13.037Z,100153.00
2023-04-11T16:25:23.295Z,100148.34
2023-04-11T16:28:29.867Z,100144.20
2023-04-11T16:31:35.923Z,100141.20
2023-04-11T16:34:42.490Z,100137.18
2023-04-11T16:37:48.641Z,100135.58
2023-04-11T16:40:55.848Z,100135.88
2023-04-11T16:44:03.856Z,100132.39
2023-04-11T16:47:11.095Z,100129.10
2023-04-11T16:50:17.299Z,100140.46
2023-04-11T16:53:24.911Z,100142.99
2023-04-11T16:56:31.336Z,100139.49
2023-04-11T16:59:39.438Z,100144.78
2023-04-11T17:02:44.535Z,100131.84
2023-04-11T17:05:53.413Z,100133.00
2023-04-11T17:09:00.552Z,100129.78
2023-04-11T17:12:06.598Z,100135.59
2023-04-11T17:15:15.551Z,100131.10
2023-04-11T17:18:21.205Z,100142.30
2023-04-11T17:21:28.124Z,100130.29
2023-04-11T17:24:34.668Z,100126.30
2023-04-11T17:27:40.373Z,100129.67
2023-04-11T17:30:45.827Z,100130.81
2023-04-11T17:33:52.764Z,100130.05
2023-04-11T17:36:58.054Z,100130.98
2023-04-11T17:40:04.180Z,100135.83
2023-04-11T17:43:10.189Z,100130.73
2023-04-11T17:46:17.057Z,100133.55
2023-04-11T17:49:24.353Z,100138.44
2023-04-11T17:52:31.796Z,100136.09
2023-04-11T17:55:38.068Z,100133.20
2023-04-11T17:58:46.356Z,100128.52
2023-04-11T18:01:54.172Z,100118.53
2023-04-11T18:05:05.618Z,100125.02
2023-04-11T18:08:11.459Z,100119.70
2023-04-11T18:11:18.439Z,100126.64
2023-04-11T18:14:26.232Z,100119.86
2023-04-11T18:17:33.947Z,100113.50
2023-04-11T18:20:40.569Z,100108.72
2023-04-11T18:23:48.424Z,100111.67
2023-04-11T18:26:56.880Z,100102.25
2023-04-11T18:30:02.744Z,100098.33
2023-04-11T18:33:08.924Z,100103.06
2023-04-11T18:36:16.184Z,100098.79
2023-04-11T18:39:24.135Z,100094.04
2023-04-11T18:42:29.585Z,100087.58
2023-04-11T18:45:39.416Z,100088.75
2023-04-11T18:48:46.124Z,100085.02
2023-04-11T18:51:53.244Z,100087.42
2023-04-11T18:54:59.523Z,100082.48
2023-04-11T18:58:09.197Z,100075.97
2023-04-11T19:01:17.840Z,100062.78
2023-04-11T19:04:24.943Z,100062.12
2023-04-11T19:07:32.422Z,100057.34
2023-04-11T19:10:39.708Z,100052.59
2023-04-11T19:13:49.289Z,100048.13
2023-04-11T19:16:55.856Z,100046.09
2023-04-11T19:20:03.825Z,100039.97
2023-04-11T19:23:12.027Z,100039.31
2023-04-11T19:26:20.197Z,100036.87
2023-04-11T19:29:27.129Z,100020.39
2023-04-11T19:32:34.045Z,100014.58
2023-04-11T19:35:42.794Z,100010.77
2023-04-11T19:38:49.161Z,100014.17
2023-04-11T19:41:59.486Z,100005.22
2023-04-11T19:45:05.555Z,100003.13
2023-04-11T19:48:12.498Z,100002.17
2023-04-11T19:51:20.325Z,100004.00
2023-04-11T19:54:26.559Z,99996.72
2023-04-11T19:57:33.742Z,99992.73
2023-04-11T20:00:42.025Z,99991.78
2023-04-11T20:03:49.882Z,99991.37
2023-04-11T20:06:57.910Z,99983.26
2023-04-11T20:10:04.231Z,99977.66
2023-04-11T20:13:11.549Z,99964.05
2023-04-11T20:16:18.314Z,99958.66
2023-04-11T20:19:25.100Z,99957.94
2023-04-11T20:22:32.502Z,99948.62
2023-04-11T20:25:38.486Z,99945.14
2023-04-11T20:28:44.884Z,99940.50
2023-04-11T20:31:49.494Z,99942.19
2023-04-11T20:34:55.544Z,99933.52
2023-04-11T20:38:02.826Z,99940.19
2023-04-11T20:41:11.052Z,99926.44
2023-04-11T20:44:16.186Z,99933.11
2023-04-11T20:47:22.291Z,99931.22
2023-04-11T20:50:29.590Z,99927.30
2023-04-11T20:53:35.693Z,99936.06
2023-04-11T20:56:43.245Z,99931.63
2023-04-11T20:59:49.605Z,99931.50
2023-04-11T21:02:58.223Z,99921.56
2023-04-11T21:06:04.709Z,99918.81
2023-04-11T21:09:12.466Z,99915.55
2023-04-11T21:12:18.572Z,99907.61
2023-04-11T21:15:26.230Z,99901.80
2023-04-11T21:18:32.144Z,99897.98
2023-04-11T21:21:40.848Z,99889.73
2023-04-11T21:24:48.875Z,99899.56
2023-04-11T21:27:56.842Z,99895.44
2023-04-11T21:31:02.933Z,99890.80
2023-04-11T21:34:09.568Z,99894.37
2023-04-11T21:37:14.549Z,99894.37
2023-04-11T21:40:22.188Z,99887.50
2023-04-11T21:43:28.098Z,99893.34
2023-04-11T21:46:33.572Z,99890.59
2023-04-11T21:49:41.461Z,99888.15
2023-04-11T21:52:47.152Z,99878.86
2023-04-11T21:56:01.502Z,99874.53
2023-04-11T21:59:10.382Z,99875.35
2023-04-11T22:02:17.870Z,99870.50
2023-04-11T22:05:24.033Z,99872.73
2023-04-11T22:08:33.176Z,99855.69
2023-04-11T22:11:40.342Z,99856.03
2023-04-11T22:14:46.935Z,99855.30
2023-04-11T22:17:55.741Z,99855.09
2023-04-11T22:21:01.995Z,99860.04
2023-04-11T22:24:11.419Z,99861.75
2023-04-11T22:27:17.232Z,99860.99
2023-04-11T22:30:24.057Z,99858.24
2023-04-11T22:33:29.529Z,99848.83
2023-04-11T22:36:38.480Z,99851.06
2023-04-11T22:39:45.519Z,99840.06
2023-04-11T22:42:53.518Z,99838.38
2023-04-11T22:45:59.966Z,99839.10
2023-04-11T22:49:06.501Z,99834.23
2023-04-11T22:52:12.787Z,99827.44
2023-04-11T22:55:22.077Z,99832.50
2023-04-11T22:58:27.828Z,99828.48
2023-04-11T23:01:35.082Z,99836.09
2023-04-11T23:04:41.080Z,99835.13
2023-04-11T23:07:47.287Z,99822.97
2023-04-11T23:10:54.265Z,99822.66
2023-04-11T23:14:01.390Z,99819.47
2023-04-11T23:17:07.377Z,99821.57
2023-04-11T23:20:15.998Z,99821.13
2023-04-11T23:23:22.192Z,99816.91
2023-04-11T23:26:34.889Z,99809.39
2023-04-11T23:29:39.229Z,99808.77
2023-04-11T23:32:45.560Z,99814.14
2023-04-11T23:35:51.154Z,99804.41
2023-04-11T23:38:57.397Z,99797.75
2023-04-11T23:42:03.685Z,99794.87
2023-04-11T23:45:10.127Z,99793.40
2023-04-11T23:48:15.588Z,99790.20
2023-04-11T23:51:22.719Z,99783.11
2023-04-11T23:54:30.170Z,99787.16
2023-04-11T23:57:38.878Z,99787.58
